Tropical Cyclones
[Index]
Main Index Home Page Stock Weather Photos Extreme Storms Discussion Storm News and Storm Chasing Reports Tropical Cyclones / Hurricanes / Typhoons Weather Data and Links Wild Fires / Bushfires Weather Observation Techniques Weather Picture Catalogue Tornado Pictures and Reports Stock Video Footage and DVDs for sale
Season 1982-1983 Tropical Cyclone SARAH Track Map
Season 1982-1983 Summaries: [BoM-AU] [JTWC-AU] [JTWC-SIO] [JTWC-SPAC] [JTWC-SH]
<<- Previous TC | JTWC 1982-1983 Season | Next TC ->>

click for intensity scale information  Lat/long Grid: Show Hide

 Date Labels: Show Hide

Joint Typhoon Warning Centre Cyclone Data

Name: SARAH

22 Mar 1983 18:00 UTC to 29 Mar 1983 06:00 UTC

    date/time    lat    long     hPa   cat  kts
1983-03-22 18   11.2   179.7W                 25          
1983-03-23 00   11.5   179.1                  25          
1983-03-23 06   11.7   178.1                  25          
1983-03-23 12   11.8   177.3                  25          
1983-03-23 18   11.9   176.8                  25          
1983-03-24 00   12.3   176.8                  25          
1983-03-24 06   12.8   177.0                  25          
1983-03-24 12   13.0   177.4                  30          
1983-03-24 18   13.3   177.8                  35          
1983-03-25 00   13.9   178.3            1     40          
1983-03-25 06   14.4   178.8            1     50          
1983-03-25 12   14.8   179.5            2     55          
1983-03-25 18   15.2   179.9W           2     65          
1983-03-26 00   15.6   179.5W           2     70          
1983-03-26 06   16.0   179.1W           2     70          
1983-03-26 12   16.3   178.6W           3     75          
1983-03-26 18   16.7   178.2W           3     80          
1983-03-27 00   17.2   177.9W           3     85          
1983-03-27 06   17.8   177.8W           3     90          
1983-03-27 12   18.5   177.8W           3     90          
1983-03-27 18   19.2   178.0W           3     85          
1983-03-28 00   20.1   178.6W           3     85          
1983-03-28 06   21.2   179.1W           3     80          
1983-03-28 12   22.5   179.2W           3     75          
1983-03-28 18   23.8   179.2W           2     70          
1983-03-29 00   24.8   179.1W           2     65          
1983-03-29 06   25.6   178.8W           2     60          
Winds are 1-min average.

Tropical cyclone tracks developed by Michael Bath using data from the Joint Typhoon Warning Centre Best Tracks and Google Maps.


[Australian Severe Weather index] [Copyright Notice] [Email Contacts] [Search This Site] [Privacy Policy]
Document: tropical_cyclone_sarah.htm Updated: 18 September 2016